Time;durP1;ratioP1;P1;durP2;ratioP2;P2;SDS_P1;SDS_P2;PMS_P1;PMS_P2;Temp;Humidity;BMP_temperature;BMP_pressure;BME280_temperature;BME280_humidity;BME280_pressure;Samples;Min_cycle;Max_cycle;Signal;HPM_P1;HPM_P2
2023/03/14 00:00:05;;;;;;;;;;;;;;;10.89;100.00;98912.03;5010616;28;20592;-78
2023/03/14 00:02:31;;;;;;;;;;;;;;;10.54;100.00;98908.69;5023058;28;20283;-79
2023/03/14 00:04:56;;;;;;;;;;;;;;;10.32;100.00;98899.41;5008728;28;19921;-77
2023/03/14 00:07:24;;;;;;;;;;;;;;;10.27;100.00;98904.44;5028514;28;19943;-77
2023/03/14 00:09:49;;;;;;;;;;;;;;;10.08;100.00;98902.88;5021469;28;19927;-78
2023/03/14 00:12:15;;;;;;;;;;;;;;;9.94;100.00;98893.63;5016871;28;19921;-78
2023/03/14 00:14:42;;;;;;;;;;;;;;;9.96;100.00;98892.47;5025793;28;19925;-77
2023/03/14 00:17:07;;;;;;;;;;;;;;;9.90;100.00;98891.28;4990731;28;20585;-78
2023/03/14 00:19:33;;;;;;;;;;;;;;;9.94;100.00;98898.97;5027376;28;19917;-78
2023/03/14 00:21:58;;;;;;;;;;;;;;;9.95;100.00;98885.44;5020192;28;19925;-78
2023/03/14 00:24:23;;;;;;;;;;;;;;;10.12;100.00;98888.13;5025162;28;19917;-77
2023/03/14 00:26:48;;;;;;;;;;;;;;;10.14;100.00;98888.81;5022178;28;19917;-76
2023/03/14 00:29:14;;;;;;;;;;;;;;;10.12;100.00;98896.19;4989004;28;20276;-78
2023/03/14 00:31:39;;;;;;;;;;;;;;;10.04;100.00;98899.69;5028337;28;20386;-76
2023/03/14 00:34:04;;;;;;;;;;;;;;;10.00;100.00;98891.16;5010077;28;20067;-77
2023/03/14 00:36:29;;;;;;;;;;;;;;;10.17;100.00;98894.72;5030019;28;19933;-77
2023/03/14 00:38:55;;;;;;;;;;;;;;;10.28;100.00;98893.53;4991536;28;19921;-79
2023/03/14 00:41:24;;;;;;;;;;;;;;;10.29;100.00;98897.06;5004761;28;19920;-79
2023/03/14 00:43:49;;;;;;;;;;;;;;;10.43;100.00;98904.50;5007161;28;20283;-79
2023/03/14 00:46:15;;;;;;;;;;;;;;;10.30;100.00;98896.91;5024364;28;20382;-79
2023/03/14 00:48:40;;;;;;;;;;;;;;;10.29;100.00;98908.63;5008053;28;20378;-78
2023/03/14 00:51:06;;;;;;;;;;;;;;;10.22;100.00;98904.94;4999936;28;20008;-76
2023/03/14 00:53:31;;;;;;;;;;;;;;;10.34;100.00;98906.28;5001621;28;19944;-77
2023/03/14 00:55:56;;;;;;;;;;;;;;;10.29;100.00;98903.28;5021855;28;20371;-78
2023/03/14 00:58:21;;;;;;;;;;;;;;;10.39;100.00;98910.34;5020030;28;20446;-77
2023/03/14 01:00:47;;;;;;;;;;;;;;;10.39;100.00;98910.34;5002445;28;20623;-79
2023/03/14 01:03:12;;;;;;;;;;;;;;;10.42;100.00;98921.59;5002546;28;19921;-76
2023/03/14 01:05:38;;;;;;;;;;;;;;;10.46;100.00;98919.41;5005097;28;20181;-78
2023/03/14 01:08:03;;;;;;;;;;;;;;;10.45;100.00;98904.31;5008540;28;19921;-76
2023/03/14 01:10:29;;;;;;;;;;;;;;;10.32;100.00;98912.81;5005395;28;19921;-78
2023/03/14 01:12:55;;;;;;;;;;;;;;;10.30;100.00;98920.19;5003208;28;20031;-80
2023/03/14 01:15:20;;;;;;;;;;;;;;;10.34;100.00;98908.97;5002377;28;19972;-79
2023/03/14 01:17:45;;;;;;;;;;;;;;;10.31;100.00;98903.09;4989117;28;20443;-78
2023/03/14 01:20:12;;;;;;;;;;;;;;;10.28;100.00;98906.09;4993403;28;20337;-77
2023/03/14 01:22:39;;;;;;;;;;;;;;;10.10;100.00;98901.72;4995859;28;20019;-77
2023/03/14 01:25:05;;;;;;;;;;;;;;;10.26;100.00;98895.56;4998379;28;19921;-77
2023/03/14 01:27:30;;;;;;;;;;;;;;;10.31;100.00;98900.41;5005374;28;20250;-78
2023/03/14 01:29:55;;;;;;;;;;;;;;;10.23;100.00;98903.06;5024215;28;20390;-79
2023/03/14 01:32:21;;;;;;;;;;;;;;;10.14;100.00;98902.22;5019854;28;19968;-79
2023/03/14 01:34:46;;;;;;;;;;;;;;;10.12;100.00;98894.34;5018667;28;20036;-78
2023/03/14 01:37:11;;;;;;;;;;;;;;;10.29;100.00;98900.59;5024434;28;19921;-76
2023/03/14 01:39:37;;;;;;;;;;;;;;;10.21;100.00;98903.25;5004802;28;20361;-78
2023/03/14 01:42:02;;;;;;;;;;;;;;;10.10;100.00;98884.78;4995497;28;20189;-78
2023/03/14 01:44:27;;;;;;;;;;;;;;;10.15;100.00;98887.81;5015656;28;20366;-78
2023/03/14 01:46:52;;;;;;;;;;;;;;;10.15;100.00;98882.44;5025182;28;19968;-78
2023/03/14 01:49:20;;;;;;;;;;;;;;;10.18;100.00;98871.41;5018765;28;20031;-79
2023/03/14 01:51:58;;;;;;;;;;;;;;;10.13;100.00;98882.63;5001721;28;19928;-79
2023/03/14 01:54:43;;;;;;;;;;;;;;;9.95;100.00;98872.03;5016496;28;20383;-78
2023/03/14 01:57:11;;;;;;;;;;;;;;;9.81;100.00;98872.63;4998615;28;19925;-78
2023/03/14 01:59:37;;;;;;;;;;;;;;;9.71;100.00;98865.59;5019026;28;19920;-78
2023/03/14 02:02:02;;;;;;;;;;;;;;;9.61;100.00;98867.56;4996872;28;19970;-77
2023/03/14 02:04:28;;;;;;;;;;;;;;;9.86;100.00;98862.28;5003162;28;19925;-77
2023/03/14 02:07:06;;;;;;;;;;;;;;;9.71;100.00;98862.06;4984859;28;19932;-76
2023/03/14 02:09:31;;;;;;;;;;;;;;;9.69;100.00;98853.34;4995695;28;19971;-79
2023/03/14 02:11:56;;;;;;;;;;;;;;;9.75;100.00;98855.38;5012661;28;20418;-78
2023/03/14 02:14:24;;;;;;;;;;;;;;;9.77;100.00;98866.78;4982294;28;19921;-77
2023/03/14 02:16:50;;;;;;;;;;;;;;;9.80;100.00;98874.50;4985792;28;20017;-76
2023/03/14 02:19:15;;;;;;;;;;;;;;;9.57;100.00;98869.72;5000790;28;19971;-76
2023/03/14 02:21:40;;;;;;;;;;;;;;;9.58;100.00;98866.06;4987948;28;20323;-78
2023/03/14 02:24:05;;;;;;;;;;;;;;;9.59;100.00;98881.13;5024122;28;19921;-76
2023/03/14 02:26:57;;;;;;;;;;;;;;;9.56;100.00;98872.56;4997530;28;20372;-78
2023/03/14 02:29:22;;;;;;;;;;;;;;;9.62;100.00;98869.25;4964712;28;19921;-77
2023/03/14 02:31:47;;;;;;;;;;;;;;;9.62;100.00;98863.06;5004269;28;19947;-77
2023/03/14 02:34:13;;;;;;;;;;;;;;;9.43;100.00;98878.34;4993497;28;19973;-77
2023/03/14 02:36:38;;;;;;;;;;;;;;;9.34;100.00;98860.59;5016579;28;20304;-78
2023/03/14 02:39:17;;;;;;;;;;;;;;;9.28;100.00;98862.91;4999782;28;20355;-78
2023/03/14 02:41:44;;;;;;;;;;;;;;;9.37;100.00;98868.31;5010909;28;20367;-77
2023/03/14 02:44:10;;;;;;;;;;;;;;;9.50;100.00;98859.81;4997468;28;19917;-80
2023/03/14 02:46:35;;;;;;;;;;;;;;;9.49;100.00;98861.66;5005767;28;19940;-78
2023/03/14 02:49:05;;;;;;;;;;;;;;;9.42;100.00;98857.94;5001752;28;20430;-76
2023/03/14 02:51:30;;;;;;;;;;;;;;;9.54;100.00;98855.81;5002084;28;20431;-78
2023/03/14 02:53:55;;;;;;;;;;;;;;;9.52;100.00;98849.78;5007140;28;20356;-77
2023/03/14 02:56:20;;;;;;;;;;;;;;;9.50;100.00;98851.78;5003609;28;19925;-79
2023/03/14 02:58:46;;;;;;;;;;;;;;;9.47;100.00;98849.44;5017942;28;20225;-75
2023/03/14 03:01:11;;;;;;;;;;;;;;;9.56;100.00;98846.63;5008598;28;19973;-76
2023/03/14 03:03:36;;;;;;;;;;;;;;;9.60;100.00;98847.97;4988492;28;19932;-79
2023/03/14 03:06:01;;;;;;;;;;;;;;;9.57;100.00;98845.63;5005143;28;19921;-77
2023/03/14 03:08:27;;;;;;;;;;;;;;;9.68;100.00;98846.31;5019653;28;19921;-77
2023/03/14 03:10:52;;;;;;;;;;;;;;;9.76;100.00;98840.97;5002989;28;19921;-78
2023/03/14 03:13:17;;;;;;;;;;;;;;;9.77;100.00;98841.84;5021782;28;19928;-77
2023/03/14 03:15:43;;;;;;;;;;;;;;;9.70;100.00;98849.66;5001276;28;19948;-79
2023/03/14 03:18:08;;;;;;;;;;;;;;;9.74;100.00;98854.56;5002377;28;19932;-78
2023/03/14 03:20:33;;;;;;;;;;;;;;;9.80;100.00;98847.69;4986457;28;19927;-78
2023/03/14 03:22:59;;;;;;;;;;;;;;;9.80;100.00;98850.38;5021307;28;20435;-78
2023/03/14 03:25:24;;;;;;;;;;;;;;;9.94;100.00;98848.91;4983570;28;19928;-78
2023/03/14 03:27:49;;;;;;;;;;;;;;;9.75;100.00;98847.34;5021652;28;19928;-78
2023/03/14 03:30:14;;;;;;;;;;;;;;;9.85;100.00;98840.00;5002229;28;19928;-79
2023/03/14 03:32:40;;;;;;;;;;;;;;;9.69;100.00;98842.63;5017539;28;19928;-78
2023/03/14 03:35:05;;;;;;;;;;;;;;;9.79;100.00;98831.78;5020329;28;19925;-79
2023/03/14 03:37:31;;;;;;;;;;;;;;;9.83;100.00;98838.47;5003971;28;19922;-78
2023/03/14 03:39:56;;;;;;;;;;;;;;;9.82;100.00;98842.16;5019557;28;20024;-78
2023/03/14 03:42:21;;;;;;;;;;;;;;;9.57;100.00;98824.19;5005278;28;19921;-77
2023/03/14 03:44:48;;;;;;;;;;;;;;;9.73;100.00;98842.16;5025089;28;20330;-79
2023/03/14 03:47:13;;;;;;;;;;;;;;;9.74;100.00;98841.16;5024968;28;19928;-79
2023/03/14 03:49:38;;;;;;;;;;;;;;;9.80;100.00;98833.47;5003640;28;19987;-78
2023/03/14 03:52:03;;;;;;;;;;;;;;;9.72;100.00;98837.78;5017941;28;19917;-78
2023/03/14 03:54:29;;;;;;;;;;;;;;;10.11;100.00;98832.81;5006332;28;20011;-77
2023/03/14 03:56:54;;;;;;;;;;;;;;;9.94;100.00;98826.59;5022230;28;20015;-78
2023/03/14 03:59:19;;;;;;;;;;;;;;;9.75;100.00;98816.03;5022969;28;19921;-78
2023/03/14 04:01:45;;;;;;;;;;;;;;;9.63;100.00;98830.72;5009188;28;19925;-78
2023/03/14 04:04:10;;;;;;;;;;;;;;;9.73;100.00;98825.22;5022390;28;19921;-79
2023/03/14 04:06:36;;;;;;;;;;;;;;;9.67;100.00;98817.81;5022334;28;19928;-79
2023/03/14 04:09:01;;;;;;;;;;;;;;;9.92;100.00;98824.09;4985052;28;20376;-77
2023/03/14 04:11:27;;;;;;;;;;;;;;;9.64;100.00;98820.88;5021614;28;19995;-76
2023/03/14 04:13:52;;;;;;;;;;;;;;;9.70;100.00;98820.19;5024874;28;19921;-79
2023/03/14 04:16:18;;;;;;;;;;;;;;;9.73;100.00;98820.72;5004703;28;19972;-78
2023/03/14 04:18:43;;;;;;;;;;;;;;;9.69;100.00;98819.38;5020117;28;19925;-79
2023/03/14 04:21:09;;;;;;;;;;;;;;;9.53;100.00;98825.50;4991139;28;19971;-78
2023/03/14 04:23:34;;;;;;;;;;;;;;;9.58;100.00;98815.16;4988496;28;19939;-79
2023/03/14 04:25:59;;;;;;;;;;;;;;;9.59;100.00;98815.97;5004297;28;20291;-78
2023/03/14 04:28:25;;;;;;;;;;;;;;;9.88;100.00;98807.50;5025386;28;19917;-80
2023/03/14 04:30:50;;;;;;;;;;;;;;;9.82;100.00;98818.03;4998910;28;20063;-77
2023/03/14 04:33:17;;;;;;;;;;;;;;;9.66;100.00;98808.97;5022858;28;20411;-78
2023/03/14 04:35:42;;;;;;;;;;;;;;;9.43;100.00;98816.75;4990502;28;19933;-78
2023/03/14 04:38:07;;;;;;;;;;;;;;;9.49;100.00;98818.78;5001112;28;19921;-76
2023/03/14 04:40:33;;;;;;;;;;;;;;;9.52;100.00;98818.47;5011133;28;19972;-76
2023/03/14 04:42:58;;;;;;;;;;;;;;;9.63;100.00;98816.50;5019732;28;19925;-78
2023/03/14 04:45:23;;;;;;;;;;;;;;;9.58;100.00;98811.63;5002385;28;19921;-78
2023/03/14 04:47:48;;;;;;;;;;;;;;;9.34;100.00;98813.22;5026384;28;19925;-79
2023/03/14 04:50:13;;;;;;;;;;;;;;;9.24;100.00;98804.47;5004492;28;20712;-78
2023/03/14 04:52:39;;;;;;;;;;;;;;;9.13;100.00;98814.47;5026854;28;19931;-77
2023/03/14 04:55:04;;;;;;;;;;;;;;;9.15;100.00;98808.94;5019015;28;19940;-79
2023/03/14 04:57:29;;;;;;;;;;;;;;;9.16;100.00;98799.91;5017584;28;19957;-78
2023/03/14 04:59:54;;;;;;;;;;;;;;;9.09;100.00;98802.41;5020622;28;19921;-78
2023/03/14 05:02:20;;;;;;;;;;;;;;;9.06;100.00;98802.72;4988891;28;19968;-78
2023/03/14 05:04:45;;;;;;;;;;;;;;;9.06;100.00;98809.91;5019375;28;19927;-80
2023/03/14 05:07:10;;;;;;;;;;;;;;;8.95;100.00;98808.34;5018856;28;19931;-80
2023/03/14 05:09:35;;;;;;;;;;;;;;;8.81;100.00;98815.13;5000347;28;19936;-79
2023/03/14 05:12:00;;;;;;;;;;;;;;;8.69;100.00;98817.25;5019640;28;19921;-77
2023/03/14 05:14:26;;;;;;;;;;;;;;;8.55;100.00;98810.63;5000218;28;19925;-78
2023/03/14 05:16:51;;;;;;;;;;;;;;;8.51;100.00;98815.41;5018362;28;20351;-77
2023/03/14 05:19:16;;;;;;;;;;;;;;;8.53;100.00;98815.28;5019463;28;19921;-77
2023/03/14 05:21:41;;;;;;;;;;;;;;;8.45;100.00;98820.53;5020305;28;19977;-78
2023/03/14 05:24:07;;;;;;;;;;;;;;;8.42;100.00;98811.00;5002914;28;20377;-78
2023/03/14 05:26:32;;;;;;;;;;;;;;;8.40;100.00;98810.31;5017220;28;19928;-77
2023/03/14 05:28:57;;;;;;;;;;;;;;;8.53;100.00;98789.38;5017408;28;19964;-79
2023/03/14 05:31:22;;;;;;;;;;;;;;;8.57;100.00;98787.22;5019388;28;19921;-77
2023/03/14 05:33:47;;;;;;;;;;;;;;;8.50;100.00;98802.22;5001783;28;19925;-77
2023/03/14 05:36:13;;;;;;;;;;;;;;;8.43;100.00;98803.81;5000379;28;19925;-78
2023/03/14 05:38:38;;;;;;;;;;;;;;;8.39;100.00;98800.59;5000308;28;19991;-77
2023/03/14 05:41:03;;;;;;;;;;;;;;;8.40;100.00;98800.44;5012683;28;20031;-79
2023/03/14 05:43:28;;;;;;;;;;;;;;;8.30;100.00;98813.09;5015059;28;19925;-76
2023/03/14 05:45:54;;;;;;;;;;;;;;;8.33;100.00;98802.06;4998592;28;19936;-78
2023/03/14 05:48:19;;;;;;;;;;;;;;;8.35;100.00;98808.09;5000985;28;19932;-77
2023/03/14 05:50:44;;;;;;;;;;;;;;;8.47;100.00;98795.31;5001856;28;19971;-78
2023/03/14 05:53:10;;;;;;;;;;;;;;;8.43;100.00;98806.47;5003029;28;20008;-76
2023/03/14 05:55:35;;;;;;;;;;;;;;;8.38;100.00;98790.91;5019186;28;19922;-77
2023/03/14 05:58:00;;;;;;;;;;;;;;;8.38;100.00;98788.22;5005286;28;20311;-78
2023/03/14 06:00:25;;;;;;;;;;;;;;;8.42;100.00;98773.56;4996750;28;19928;-78
2023/03/14 06:02:51;;;;;;;;;;;;;;;8.51;100.00;98783.31;4999500;28;19921;-75
2023/03/14 06:05:16;;;;;;;;;;;;;;;8.59;100.00;98773.69;5016039;28;20042;-77
2023/03/14 06:07:41;;;;;;;;;;;;;;;8.50;100.00;98754.91;5027425;28;20504;-77
2023/03/14 06:10:06;;;;;;;;;;;;;;;8.59;100.00;98773.69;5021256;28;19920;-78
2023/03/14 06:12:32;;;;;;;;;;;;;;;8.59;100.00;98784.38;5022585;28;19925;-78
2023/03/14 06:14:57;;;;;;;;;;;;;;;8.55;100.00;98786.53;5005080;28;20055;-78
2023/03/14 06:17:22;;;;;;;;;;;;;;;8.50;100.00;98781.66;4998303;28;20005;-78
2023/03/14 06:19:47;;;;;;;;;;;;;;;8.60;100.00;98786.91;5002241;28;20011;-77
2023/03/14 06:22:13;;;;;;;;;;;;;;;8.70;100.00;98792.16;5019389;28;19920;-78
2023/03/14 06:24:38;;;;;;;;;;;;;;;8.73;100.00;98793.66;5000193;28;19925;-77
2023/03/14 06:27:03;;;;;;;;;;;;;;;8.72;100.00;98790.16;5016997;28;19922;-77
2023/03/14 06:29:29;;;;;;;;;;;;;;;8.69;100.00;98799.34;5020058;28;19929;-77
2023/03/14 06:31:54;;;;;;;;;;;;;;;8.67;100.00;98790.63;5020747;28;19960;-76
2023/03/14 06:34:19;;;;;;;;;;;;;;;8.81;100.00;98791.88;5003113;28;19925;-77
2023/03/14 06:36:46;;;;;;;;;;;;;;;8.80;100.00;98797.41;5016641;28;20289;-77
2023/03/14 06:39:12;;;;;;;;;;;;;;;8.90;100.00;98791.94;5018001;28;19917;-76
2023/03/14 06:41:37;;;;;;;;;;;;;;;8.82;100.00;98806.13;5006587;28;20404;-77
2023/03/14 06:44:02;;;;;;;;;;;;;;;8.88;100.00;98793.94;5021141;28;19925;-79
2023/03/14 06:46:27;;;;;;;;;;;;;;;8.87;100.00;98794.91;5003990;28;20416;-77
2023/03/14 06:48:53;;;;;;;;;;;;;;;8.85;100.00;98797.78;5017187;28;20027;-78
2023/03/14 06:51:18;;;;;;;;;;;;;;;8.79;100.00;98801.91;5021308;28;19968;-76
2023/03/14 06:53:43;;;;;;;;;;;;;;;8.72;100.00;98803.56;5003670;28;19944;-77
2023/03/14 06:56:09;;;;;;;;;;;;;;;8.67;100.00;98800.50;4998468;28;19930;-79
2023/03/14 06:58:34;;;;;;;;;;;;;;;8.63;100.00;98813.34;5005007;28;19919;-77
2023/03/14 07:00:59;;;;;;;;;;;;;;;8.73;100.00;98812.41;4979838;28;19963;-78
2023/03/14 07:03:24;;;;;;;;;;;;;;;8.74;100.00;98814.91;4987017;28;19922;-80
2023/03/14 07:05:49;;;;;;;;;;;;;;;8.72;100.00;98814.25;4986780;28;20016;-78
2023/03/14 07:08:15;;;;;;;;;;;;;;;8.80;100.00;98816.94;4987007;28;19927;-78
2023/03/14 07:10:40;;;;;;;;;;;;;;;8.85;100.00;98820.00;4999724;28;20036;-78
2023/03/14 07:13:05;;;;;;;;;;;;;;;8.81;100.00;98824.00;4998083;28;19924;-78
2023/03/14 07:15:30;;;;;;;;;;;;;;;8.82;100.00;98816.81;4995425;28;19962;-78
2023/03/14 07:17:56;;;;;;;;;;;;;;;8.94;100.00;98822.75;5000592;28;19999;-78
2023/03/14 07:20:21;;;;;;;;;;;;;;;8.93;100.00;98829.91;4987566;28;19925;-77
2023/03/14 07:22:47;;;;;;;;;;;;;;;8.95;100.00;98833.28;4997587;28;19917;-77
2023/03/14 07:25:13;;;;;;;;;;;;;;;8.98;100.00;98829.47;4979784;28;19921;-77
2023/03/14 07:27:38;;;;;;;;;;;;;;;8.94;100.00;98838.78;5005194;28;20238;-78
2023/03/14 07:30:03;;;;;;;;;;;;;;;8.90;100.00;98846.28;4990876;28;19917;-77
2023/03/14 07:32:29;;;;;;;;;;;;;;;9.02;100.00;98902.25;4998339;28;20395;-78
2023/03/14 07:34:54;;;;;;;;;;;;;;;8.28;100.00;98923.81;4998961;28;19932;-77
2023/03/14 07:37:19;;;;;;;;;;;;;;;7.58;100.00;98923.41;5014862;28;20435;-78
2023/03/14 07:39:44;;;;;;;;;;;;;;;7.50;100.00;98928.63;4998083;28;19916;-80
2023/03/14 07:42:10;;;;;;;;;;;;;;;7.33;100.00;98943.56;4994514;28;19924;-79
2023/03/14 07:44:36;;;;;;;;;;;;;;;7.34;100.00;98950.59;5001561;28;19929;-78
2023/03/14 07:47:01;;;;;;;;;;;;;;;7.34;100.00;98951.44;5016979;28;19928;-76
2023/03/14 07:49:26;;;;;;;;;;;;;;;7.14;100.00;98968.50;5020205;28;19971;-78
2023/03/14 07:51:52;;;;;;;;;;;;;;;7.10;100.00;98975.94;5017166;28;19928;-79
2023/03/14 07:54:17;;;;;;;;;;;;;;;7.10;100.00;98975.13;4999208;28;20299;-80
2023/03/14 07:56:42;;;;;;;;;;;;;;;7.21;100.00;98988.28;4993239;28;20439;-80
2023/03/14 07:59:07;;;;;;;;;;;;;;;7.01;100.00;99003.50;5017077;28;20396;-79
2023/03/14 08:01:33;;;;;;;;;;;;;;;6.95;100.00;99012.06;4996650;28;19956;-79
2023/03/14 08:03:58;;;;;;;;;;;;;;;6.90;100.00;99018.66;5000846;28;20276;-79
2023/03/14 08:06:23;;;;;;;;;;;;;;;6.80;100.00;99027.66;5026027;28;19917;-80
2023/03/14 08:08:48;;;;;;;;;;;;;;;6.82;100.00;99031.03;4985870;28;20323;-78
2023/03/14 08:11:13;;;;;;;;;;;;;;;6.81;100.00;99040.00;4990639;28;20434;-80
2023/03/14 08:13:39;;;;;;;;;;;;;;;6.90;100.00;99040.00;5009242;28;20446;-79
2023/03/14 08:16:05;;;;;;;;;;;;;;;7.01;100.00;99052.34;4986817;28;19921;-77
2023/03/14 08:18:30;;;;;;;;;;;;;;;7.05;100.00;99066.25;5000478;28;19975;-79
2023/03/14 08:20:55;;;;;;;;;;;;;;;6.97;100.00;99069.63;5001270;28;19921;-78
2023/03/14 08:23:20;;;;;;;;;;;;;;;7.02;100.00;99080.72;4988312;28;19921;-79
2023/03/14 08:25:47;;;;;;;;;;;;;;;7.05;100.00;99071.59;5000293;28;20759;-79
2023/03/14 08:28:13;;;;;;;;;;;;;;;7.05;100.00;99087.59;4987849;28;19921;-77
2023/03/14 08:30:38;;;;;;;;;;;;;;;7.11;100.00;99097.72;4997590;28;20260;-79
2023/03/14 08:33:03;;;;;;;;;;;;;;;7.22;100.00;99102.06;5013360;28;20320;-78
2023/03/14 08:35:28;;;;;;;;;;;;;;;7.24;100.00;99118.81;4986191;28;20601;-77
2023/03/14 08:37:53;;;;;;;;;;;;;;;7.24;100.00;99126.81;5019617;28;20375;-80
2023/03/14 08:40:19;;;;;;;;;;;;;;;7.25;100.00;99130.34;5011841;28;19921;-78
2023/03/14 08:42:44;;;;;;;;;;;;;;;7.37;100.00;99136.38;5016456;28;19926;-77
2023/03/14 08:45:11;;;;;;;;;;;;;;;7.55;100.00;99141.84;5002203;28;20773;-79
2023/03/14 08:47:37;;;;;;;;;;;;;;;7.49;100.00;99145.91;5007125;28;20337;-79
2023/03/14 08:50:03;;;;;;;;;;;;;;;7.37;100.00;99155.91;5027796;28;19927;-78
2023/03/14 08:52:30;;;;;;;;;;;;;;;7.33;100.00;99150.00;5017968;28;19925;-79
2023/03/14 08:54:55;;;;;;;;;;;;;;;7.37;100.00;99174.59;5017627;28;19921;-79
2023/03/14 08:57:21;;;;;;;;;;;;;;;7.37;100.00;99169.25;5021013;28;19922;-77
2023/03/14 08:59:46;;;;;;;;;;;;;;;7.42;100.00;99187.50;5005777;28;19922;-78
2023/03/14 09:02:12;;;;;;;;;;;;;;;7.37;100.00;99203.13;5017894;28;19928;-78
2023/03/14 09:04:37;;;;;;;;;;;;;;;7.29;100.00;99209.13;5019137;28;19967;-80
2023/03/14 09:07:03;;;;;;;;;;;;;;;7.23;100.00;99215.88;5016434;28;19921;-77
2023/03/14 09:09:28;;;;;;;;;;;;;;;7.00;100.00;99234.78;5024369;28;19921;-76
2023/03/14 09:11:53;;;;;;;;;;;;;;;6.93;100.00;99251.50;4990583;28;20035;-79
2023/03/14 09:14:18;;;;;;;;;;;;;;;6.35;100.00;99261.75;5022522;28;20288;-78
2023/03/14 09:16:44;;;;;;;;;;;;;;;6.24;100.00;99278.63;5003938;28;20389;-79
2023/03/14 09:19:09;;;;;;;;;;;;;;;6.18;100.00;99292.50;5023379;28;19944;-78
2023/03/14 09:21:34;;;;;;;;;;;;;;;6.37;100.00;99304.28;4995226;28;20006;-77
2023/03/14 09:23:59;;;;;;;;;;;;;;;6.06;100.00;99313.03;5015976;28;20024;-79
2023/03/14 09:26:24;;;;;;;;;;;;;;;6.36;100.00;99331.91;5005311;28;19928;-79
2023/03/14 09:28:50;;;;;;;;;;;;;;;6.28;100.00;99325.38;4991206;28;20275;-79
2023/03/14 09:31:15;;;;;;;;;;;;;;;6.58;100.00;99353.09;5004019;28;20470;-80
2023/03/14 09:33:40;;;;;;;;;;;;;;;6.73;100.00;99355.44;5020633;28;20366;-77
2023/03/14 09:36:07;;;;;;;;;;;;;;;6.92;100.00;99367.19;4990891;28;20435;-80
2023/03/14 09:38:32;;;;;;;;;;;;;;;6.85;100.00;99378.41;5000296;28;20571;-79
2023/03/14 09:40:58;;;;;;;;;;;;;;;6.87;100.00;99391.63;4991571;28;19921;-78
2023/03/14 09:43:23;;;;;;;;;;;;;;;7.15;100.00;99400.75;5000983;28;19917;-79
2023/03/14 09:45:48;;;;;;;;;;;;;;;7.53;100.00;99405.56;4999452;28;19925;-79
2023/03/14 09:48:32;;;;;;;;;;;;;;;7.60;100.00;99409.34;5002338;28;19925;-80
2023/03/14 09:50:58;;;;;;;;;;;;;;;8.09;100.00;99423.66;4987936;28;20028;-80
2023/03/14 09:53:24;;;;;;;;;;;;;;;8.21;100.00;99428.91;5000678;28;20019;-79
2023/03/14 09:55:50;;;;;;;;;;;;;;;8.21;100.00;99435.09;5002338;28;20380;-80
2023/03/14 09:58:22;;;;;;;;;;;;;;;8.37;100.00;99439.88;5002369;28;19921;-78
2023/03/14 10:00:47;;;;;;;;;;;;;;;8.34;100.00;99458.88;5001382;28;19917;-78
2023/03/14 10:03:12;;;;;;;;;;;;;;;8.41;100.00;99470.72;4989482;28;19928;-79
2023/03/14 10:05:38;;;;;;;;;;;;;;;8.40;100.00;99479.72;5022087;28;19925;-78
2023/03/14 10:08:03;;;;;;;;;;;;;;;8.30;100.00;99494.94;4990008;28;20261;-80
2023/03/14 10:10:28;;;;;;;;;;;;;;;8.16;100.00;99519.38;4982260;28;19921;-79
2023/03/14 10:13:12;;;;;;;;;;;;;;;7.37;100.00;99518.19;5000638;28;19960;-78
2023/03/14 10:15:38;;;;;;;;;;;;;;;7.74;100.00;99542.59;5013340;28;20650;-79
2023/03/14 10:18:03;;;;;;;;;;;;;;;7.73;100.00;99543.56;4986770;28;20012;-79
2023/03/14 10:20:36;;;;;;;;;;;;;;;7.81;100.00;99559.75;5015155;28;19924;-79
2023/03/14 10:23:03;;;;;;;;;;;;;;;7.80;100.00;99570.59;5003841;28;19940;-80
2023/03/14 10:25:30;;;;;;;;;;;;;;;7.74;100.00;99573.78;4994994;28;20296;-80
2023/03/14 10:27:55;;;;;;;;;;;;;;;7.64;100.00;99595.97;4989089;28;19928;-79
2023/03/14 10:30:34;;;;;;;;;;;;;;;7.72;100.00;99597.09;5002276;28;19921;-78
2023/03/14 10:33:07;;;;;;;;;;;;;;;8.07;100.00;99610.13;4975713;28;20408;-79
2023/03/14 10:35:33;;;;;;;;;;;;;;;7.99;100.00;99620.63;4983765;28;19970;-80
2023/03/14 10:37:59;;;;;;;;;;;;;;;7.98;100.00;99631.44;5004529;28;19920;-79
2023/03/14 10:40:28;;;;;;;;;;;;;;;7.82;100.00;99640.78;4980819;28;20334;-80
2023/03/14 10:42:55;;;;;;;;;;;;;;;7.94;100.00;99645.09;5023632;28;19960;-79
2023/03/14 10:45:32;;;;;;;;;;;;;;;8.01;100.00;99664.09;4998162;28;19921;-79
2023/03/14 10:47:59;;;;;;;;;;;;;;;8.23;100.00;99667.59;5022736;28;20383;-79
2023/03/14 10:50:25;;;;;;;;;;;;;;;8.34;100.00;99680.88;4999424;28;19943;-80
2023/03/14 10:52:51;;;;;;;;;;;;;;;8.77;100.00;99686.16;5006687;28;19921;-80
2023/03/14 10:55:16;;;;;;;;;;;;;;;8.70;100.00;99689.34;4987401;28;19968;-80
2023/03/14 10:57:42;;;;;;;;;;;;;;;8.81;100.00;99698.28;5004600;28;19921;-80
2023/03/14 11:00:18;;;;;;;;;;;;;;;8.84;100.00;99706.88;5002000;28;20443;-80
2023/03/14 11:02:54;;;;;;;;;;;;;;;8.95;100.00;99711.25;5002106;28;20276;-80
2023/03/14 11:05:29;;;;;;;;;;;;;;;8.62;100.00;99728.47;5006196;28;20288;-80
2023/03/14 11:07:56;;;;;;;;;;;;;;;8.93;100.00;99733.81;5007856;28;20291;-80
2023/03/14 11:10:54;;;;;;;;;;;;;;;9.04;100.00;99746.25;4997813;28;19921;-79
2023/03/14 11:13:38;;;;;;;;;;;;;;;9.08;100.00;99753.84;4988064;28;19921;-80
2023/03/14 11:16:09;;;;;;;;;;;;;;;9.21;100.00;99772.34;5002165;28;20097;-78
2023/03/14 11:18:43;;;;;;;;;;;;;;;8.80;100.00;99795.59;4993982;28;19925;-77
2023/03/14 11:21:12;;;;;;;;;;;;;;;8.09;100.00;99810.47;5024000;28;20359;-80
2023/03/14 11:23:52;;;;;;;;;;;;;;;7.61;100.00;99827.78;5022995;28;19925;-77
2023/03/14 11:26:25;;;;;;;;;;;;;;;7.36;100.00;99827.09;5014504;28;20000;-78
2023/03/14 11:28:51;;;;;;;;;;;;;;;7.29;100.00;99842.75;5006837;28;19920;-78
2023/03/14 11:31:18;;;;;;;;;;;;;;;7.35;100.00;99842.28;5002196;28;19929;-79
2023/03/14 11:33:48;;;;;;;;;;;;;;;7.79;100.00;99844.13;5004423;28;19975;-77
2023/03/14 11:36:31;;;;;;;;;;;;;;;8.14;100.00;99860.88;4993971;28;19928;-77
2023/03/14 11:38:57;;;;;;;;;;;;;;;8.29;100.00;99862.28;5005179;28;19927;-77
2023/03/14 11:41:25;;;;;;;;;;;;;;;8.35;100.00;99867.09;5001262;28;19921;-78
2023/03/14 11:43:54;;;;;;;;;;;;;;;8.71;100.00;99880.22;5014389;28;19926;-79
2023/03/14 11:46:25;;;;;;;;;;;;;;;8.65;100.00;99892.28;5017299;28;19921;-77
2023/03/14 11:49:08;;;;;;;;;;;;;;;8.30;100.00;99896.09;5006005;28;20434;-79
2023/03/14 11:51:38;;;;;;;;;;;;;;;7.80;100.00;99891.25;5006636;28;20421;-76
2023/03/14 11:54:17;;;;;;;;;;;;;;;8.21;100.00;99913.72;5006791;28;19928;-77
2023/03/14 11:56:51;;;;;;;;;;;;;;;7.74;100.00;99910.44;5006599;28;19971;-78
2023/03/14 11:59:27;;;;;;;;;;;;;;;8.11;100.00;99924.31;5014308;28;20003;-77
2023/03/14 12:02:19;;;;;;;;;;;;;;;8.25;100.00;99931.22;5002266;28;20035;-77
2023/03/14 12:04:50;;;;;;;;;;;;;;;8.48;100.00;99911.56;4990977;28;20258;-76
2023/03/14 12:07:34;;;;;;;;;;;;;;;8.55;100.00;99945.72;4998745;28;19943;-77
2023/03/14 12:09:59;;;;;;;;;;;;;;;8.69;100.00;99949.91;5025434;28;20306;-78
2023/03/14 12:12:25;;;;;;;;;;;;;;;8.98;100.00;99953.78;5028240;28;19924;-78
2023/03/14 12:15:00;;;;;;;;;;;;;;;8.75;100.00;99961.09;5004828;28;19929;-78
2023/03/14 12:17:27;;;;;;;;;;;;;;;8.97;100.00;99974.34;5008186;28;19944;-77
2023/03/14 12:20:11;;;;;;;;;;;;;;;8.93;100.00;99978.25;5007969;28;20372;-77
2023/03/14 12:22:41;;;;;;;;;;;;;;;8.63;97.24;99982.53;5026589;28;20427;-78
2023/03/14 12:25:13;;;;;;;;;;;;;;;9.27;96.45;99996.81;5005530;28;19917;-80
2023/03/14 12:27:45;;;;;;;;;;;;;;;10.31;95.52;99989.56;5006113;28;19928;-79
2023/03/14 12:30:15;;;;;;;;;;;;;;;10.60;73.81;99995.00;5020124;28;20004;-78
2023/03/14 12:32:40;;;;;;;;;;;;;;;11.14;72.10;99999.09;4998873;28;20332;-79
2023/03/14 12:35:24;;;;;;;;;;;;;;;11.76;72.57;100009.41;5006532;28;20326;-76
2023/03/14 12:37:50;;;;;;;;;;;;;;;13.07;62.55;100001.03;5019017;28;19921;-77
2023/03/14 12:40:17;;;;;;;;;;;;;;;13.39;60.57;100004.13;5002408;28;19991;-77
2023/03/14 12:42:45;;;;;;;;;;;;;;;13.44;57.34;100001.81;5006560;28;20015;-78